createdAt,value
2022-12-04T00:01:11.061Z,-0.81
2022-12-04T00:03:37.616Z,-0.80
2022-12-04T00:06:12.569Z,-0.80
2022-12-04T00:08:39.282Z,-0.80
2022-12-04T00:11:07.963Z,-0.79
2022-12-04T00:13:35.514Z,-0.80
2022-12-04T00:16:04.479Z,-0.80
2022-12-04T00:18:30.927Z,-0.80
2022-12-04T00:20:57.298Z,-0.77
2022-12-04T00:23:23.693Z,-0.77
2022-12-04T00:25:50.090Z,-0.77
2022-12-04T00:28:17.874Z,-0.77
2022-12-04T00:30:45.330Z,-0.76
2022-12-04T00:33:14.723Z,-0.76
2022-12-04T00:35:41.121Z,-0.77
2022-12-04T00:38:07.592Z,-0.77
2022-12-04T00:40:34.328Z,-0.78
2022-12-04T00:43:00.913Z,-0.79
2022-12-04T00:45:27.402Z,-0.77
2022-12-04T00:47:53.920Z,-0.75
2022-12-04T00:50:20.304Z,-0.77
2022-12-04T00:52:46.702Z,-0.76
2022-12-04T00:55:13.108Z,-0.77
2022-12-04T00:57:39.590Z,-0.77
2022-12-04T01:00:07.312Z,-0.77
2022-12-04T01:02:33.764Z,-0.76
2022-12-04T01:05:01.399Z,-0.77
2022-12-04T01:07:28.020Z,-0.76
2022-12-04T01:09:54.648Z,-0.77
2022-12-04T01:12:21.296Z,-0.76
2022-12-04T01:14:47.746Z,-0.76
2022-12-04T01:17:14.164Z,-0.76
2022-12-04T01:19:40.668Z,-0.76
2022-12-04T01:22:07.006Z,-0.77
2022-12-04T01:24:33.380Z,-0.76
2022-12-04T01:26:59.809Z,-0.75
2022-12-04T01:29:26.184Z,-0.76
2022-12-04T01:31:52.607Z,-0.76
2022-12-04T01:34:19.027Z,-0.77
2022-12-04T01:36:45.462Z,-0.79
2022-12-04T01:39:12.183Z,-0.78
2022-12-04T01:41:38.621Z,-0.78
2022-12-04T01:44:20.929Z,-0.78
2022-12-04T01:47:09.785Z,-0.77
2022-12-04T01:49:48.552Z,-0.76
2022-12-04T01:52:21.493Z,-0.77
2022-12-04T01:54:54.280Z,-0.78
2022-12-04T01:57:23.615Z,-0.77
2022-12-04T01:59:53.855Z,-0.76
2022-12-04T02:02:32.919Z,-0.78
2022-12-04T02:05:00.677Z,-0.76
2022-12-04T02:07:27.752Z,-0.77
2022-12-04T02:09:56.249Z,-0.78
2022-12-04T02:12:54.870Z,-0.76
2022-12-04T02:15:58.938Z,-0.77
2022-12-04T02:18:35.477Z,-0.74
2022-12-04T02:21:07.863Z,-0.75
2022-12-04T02:24:03.470Z,-0.74
2022-12-04T02:26:32.707Z,-0.74
2022-12-04T02:29:11.557Z,-0.74
2022-12-04T02:31:55.248Z,-0.74
2022-12-04T02:34:34.349Z,-0.74
2022-12-04T02:37:08.889Z,-0.74
2022-12-04T02:39:44.319Z,-0.74
2022-12-04T02:42:25.333Z,-0.72
2022-12-04T02:44:58.763Z,-0.73
2022-12-04T02:47:26.205Z,-0.72
2022-12-04T02:49:58.562Z,-0.71
2022-12-04T02:52:33.146Z,-0.70
2022-12-04T02:55:08.649Z,-0.71
2022-12-04T02:57:38.583Z,-0.71
2022-12-04T03:00:08.089Z,-0.69
2022-12-04T03:02:53.367Z,-0.70
2022-12-04T03:05:27.175Z,-0.69
2022-12-04T03:07:58.760Z,-0.69
2022-12-04T03:10:30.344Z,-0.69
2022-12-04T03:13:03.204Z,-0.69
2022-12-04T03:15:34.108Z,-0.68
2022-12-04T03:18:06.113Z,-0.70
2022-12-04T03:20:36.262Z,-0.70
2022-12-04T03:23:11.408Z,-0.70
2022-12-04T03:26:04.686Z,-0.68
2022-12-04T03:28:51.039Z,-0.69
2022-12-04T03:31:26.548Z,-0.69
2022-12-04T03:33:57.793Z,-0.68
2022-12-04T03:36:36.693Z,-0.67
2022-12-04T03:39:22.994Z,-0.69
2022-12-04T03:42:08.312Z,-0.69
2022-12-04T03:44:40.697Z,-0.68
2022-12-04T03:47:16.365Z,-0.69
2022-12-04T03:49:50.869Z,-0.69
2022-12-04T03:52:27.912Z,-0.69
2022-12-04T03:55:26.465Z,-0.69
2022-12-04T03:57:57.405Z,-0.68
2022-12-04T04:00:23.802Z,-0.69
2022-12-04T04:03:12.975Z,-0.68
2022-12-04T04:05:44.850Z,-0.67
2022-12-04T04:08:26.778Z,-0.68
2022-12-04T04:11:13.791Z,-0.67
2022-12-04T04:14:17.604Z,-0.68
2022-12-04T04:17:09.921Z,-0.68
2022-12-04T04:19:57.279Z,-0.68
2022-12-04T04:22:44.854Z,-0.67
2022-12-04T04:25:14.664Z,-0.67
2022-12-04T04:27:41.145Z,-0.65
2022-12-04T04:30:09.095Z,-0.67
2022-12-04T04:33:00.950Z,-0.67
2022-12-04T04:35:43.998Z,-0.65
2022-12-04T04:38:22.105Z,-0.68
2022-12-04T04:41:00.409Z,-0.66
2022-12-04T04:43:37.401Z,-0.67
2022-12-04T04:46:44.517Z,-0.65
2022-12-04T04:49:14.384Z,-0.67
2022-12-04T04:51:41.214Z,-0.68
2022-12-04T04:54:11.775Z,-0.67
2022-12-04T04:56:45.788Z,-0.67
2022-12-04T04:59:12.682Z,-0.68
2022-12-04T05:01:40.059Z,-0.68
2022-12-04T05:04:07.500Z,-0.69
2022-12-04T05:06:33.875Z,-0.68
2022-12-04T05:09:00.658Z,-0.68
2022-12-04T05:11:27.284Z,-0.69
2022-12-04T05:13:53.713Z,-0.67
2022-12-04T05:16:20.177Z,-0.67
2022-12-04T05:19:06.681Z,-0.66
2022-12-04T05:21:33.555Z,-0.67
2022-12-04T05:24:00.164Z,-0.67
2022-12-04T05:26:26.680Z,-0.68
2022-12-04T05:28:53.024Z,-0.67
2022-12-04T05:31:19.602Z,-0.67
2022-12-04T05:33:46.109Z,-0.68
2022-12-04T05:36:13.320Z,-0.67
2022-12-04T05:38:39.895Z,-0.67
2022-12-04T05:41:07.470Z,-0.67
2022-12-04T05:43:34.412Z,-0.65
2022-12-04T05:46:06.579Z,-0.65
2022-12-04T05:48:34.738Z,-0.64
2022-12-04T05:51:06.506Z,-0.67
2022-12-04T05:53:32.852Z,-0.65
2022-12-04T05:56:01.486Z,-0.64
2022-12-04T05:58:28.487Z,-0.65
2022-12-04T06:00:55.318Z,-0.64
2022-12-04T06:03:22.285Z,-0.64
2022-12-04T06:05:48.764Z,-0.65
2022-12-04T06:08:15.415Z,-0.64
2022-12-04T06:10:42.043Z,-0.65
2022-12-04T06:13:08.508Z,-0.65
2022-12-04T06:15:39.599Z,-0.63
2022-12-04T06:18:06.356Z,-0.64
2022-12-04T06:20:33.513Z,-0.63
2022-12-04T06:23:00.088Z,-0.62
2022-12-04T06:25:26.547Z,-0.63
2022-12-04T06:27:52.930Z,-0.62
2022-12-04T06:30:19.448Z,-0.61
2022-12-04T06:32:45.792Z,-0.63
2022-12-04T06:35:12.123Z,-0.61
2022-12-04T06:37:38.503Z,-0.60
2022-12-04T06:40:05.679Z,-0.60
2022-12-04T06:42:32.030Z,-0.59
2022-12-04T06:44:58.413Z,-0.60
2022-12-04T06:47:24.795Z,-0.59
2022-12-04T06:49:51.497Z,-0.58
2022-12-04T06:52:18.229Z,-0.58
2022-12-04T06:54:44.563Z,-0.58
2022-12-04T06:57:10.922Z,-0.58
2022-12-04T06:59:37.528Z,-0.58
2022-12-04T07:02:03.962Z,-0.58
2022-12-04T07:04:30.357Z,-0.58
2022-12-04T07:06:56.731Z,-0.58
2022-12-04T07:09:23.145Z,-0.57
2022-12-04T07:11:49.524Z,-0.56
2022-12-04T07:14:15.966Z,-0.54
2022-12-04T07:16:42.976Z,-0.55
2022-12-04T07:19:11.147Z,-0.56
2022-12-04T07:21:37.638Z,-0.54
2022-12-04T07:24:04.190Z,-0.54
2022-12-04T07:26:31.404Z,-0.54
2022-12-04T07:29:00.407Z,-0.54
2022-12-04T07:31:28.998Z,-0.53
2022-12-04T07:33:56.468Z,-0.53
2022-12-04T07:36:23.877Z,-0.52
2022-12-04T07:38:50.808Z,-0.52
2022-12-04T07:41:18.552Z,-0.52
2022-12-04T07:43:45.213Z,-0.52
2022-12-04T07:46:23.769Z,-0.49
2022-12-04T07:48:50.213Z,-0.50
2022-12-04T07:51:20.950Z,-0.49
2022-12-04T07:53:48.210Z,-0.49
2022-12-04T07:56:15.068Z,-0.47
2022-12-04T07:58:41.831Z,-0.47
2022-12-04T08:01:12.230Z,-0.48
2022-12-04T08:03:46.696Z,-0.46
2022-12-04T08:06:14.915Z,-0.45
2022-12-04T08:08:41.343Z,-0.44
2022-12-04T08:11:09.681Z,-0.44
2022-12-04T08:13:36.438Z,-0.44
2022-12-04T08:16:04.148Z,-0.43
2022-12-04T08:18:31.066Z,-0.43
2022-12-04T08:21:09.317Z,-0.43
2022-12-04T08:23:36.526Z,-0.41
2022-12-04T08:26:04.150Z,-0.40
2022-12-04T08:28:31.461Z,-0.40
2022-12-04T08:31:10.646Z,-0.37
2022-12-04T08:33:37.289Z,-0.37
2022-12-04T08:36:08.522Z,-0.35
2022-12-04T08:38:35.386Z,-0.34
2022-12-04T08:41:03.837Z,-0.36
2022-12-04T08:43:30.890Z,-0.34
2022-12-04T08:46:03.048Z,-0.34
2022-12-04T08:48:29.860Z,-0.31
2022-12-04T08:50:56.383Z,-0.31
2022-12-04T08:53:23.359Z,-0.32
2022-12-04T08:55:50.111Z,-0.34
2022-12-04T08:58:16.579Z,-0.35
2022-12-04T09:00:43.479Z,-0.36
2022-12-04T09:03:17.693Z,-0.34
2022-12-04T09:05:48.028Z,-0.36
2022-12-04T09:08:15.893Z,-0.36
2022-12-04T09:10:42.741Z,-0.35
2022-12-04T09:13:09.176Z,-0.34
2022-12-04T09:15:39.472Z,-0.35
2022-12-04T09:18:07.075Z,-0.37
2022-12-04T09:20:33.582Z,-0.39
2022-12-04T09:23:04.724Z,-0.39
2022-12-04T09:25:34.542Z,-0.38
2022-12-04T09:28:00.901Z,-0.37
2022-12-04T09:30:27.239Z,-0.41
2022-12-04T09:32:56.646Z,-0.40
2022-12-04T09:35:23.005Z,-0.39
2022-12-04T09:37:49.331Z,-0.37
2022-12-04T09:40:37.448Z,-0.38
2022-12-04T09:43:34.281Z,-0.39
2022-12-04T09:46:09.559Z,-0.39
2022-12-04T09:48:38.488Z,-0.41
2022-12-04T09:51:06.917Z,-0.40
2022-12-04T09:53:45.796Z,-0.35
2022-12-04T09:56:17.286Z,-0.38
2022-12-04T09:58:50.957Z,-0.36
2022-12-04T10:01:26.301Z,-0.34
2022-12-04T10:03:54.408Z,-0.32
2022-12-04T10:06:27.398Z,-0.31
2022-12-04T10:09:22.166Z,-0.29
2022-12-04T10:12:18.123Z,-0.29
2022-12-04T10:14:47.561Z,-0.27
2022-12-04T10:17:40.775Z,-0.26
2022-12-04T10:20:41.620Z,-0.25
2022-12-04T10:23:36.530Z,-0.21
2022-12-04T10:26:05.028Z,-0.21
2022-12-04T10:28:37.752Z,-0.21
2022-12-04T10:31:10.717Z,-0.19
2022-12-04T10:33:41.222Z,-0.19
2022-12-04T10:36:13.834Z,-0.19
2022-12-04T10:38:57.595Z,-0.14
2022-12-04T10:41:29.589Z,-0.16
2022-12-04T10:43:56.053Z,-0.15
2022-12-04T10:46:25.432Z,-0.14
2022-12-04T10:48:57.891Z,-0.14
2022-12-04T10:51:24.373Z,-0.12
2022-12-04T10:53:51.836Z,-0.10
2022-12-04T10:56:21.765Z,-0.10
2022-12-04T10:58:55.554Z,-0.08
2022-12-04T11:01:22.543Z,-0.09
2022-12-04T11:03:57.510Z,-0.09
2022-12-04T11:06:26.311Z,-0.08
2022-12-04T11:08:54.342Z,-0.07
2022-12-04T11:11:33.352Z,-0.06
2022-12-04T11:14:12.646Z,-0.06
2022-12-04T11:16:44.557Z,-0.04
2022-12-04T11:19:26.175Z,-0.04
2022-12-04T11:22:17.572Z,-0.02
2022-12-04T11:24:50.608Z,0.02
2022-12-04T11:27:23.618Z,0.03
2022-12-04T11:29:50.289Z,0.05
2022-12-04T11:32:26.668Z,0.06
2022-12-04T11:34:57.500Z,0.10
2022-12-04T11:37:34.765Z,0.09
2022-12-04T11:40:05.415Z,0.10
2022-12-04T11:42:32.589Z,0.10
2022-12-04T11:44:58.929Z,0.12
2022-12-04T11:47:30.101Z,0.12
2022-12-04T11:50:13.651Z,0.09
2022-12-04T11:52:51.749Z,0.12
2022-12-04T11:55:48.241Z,0.14
2022-12-04T11:58:23.550Z,0.16
2022-12-04T12:01:18.013Z,0.19
2022-12-04T12:04:12.845Z,0.19
2022-12-04T12:07:01.049Z,0.20
2022-12-04T12:09:38.278Z,0.22
2022-12-04T12:12:21.234Z,0.24
2022-12-04T12:15:09.557Z,0.25
2022-12-04T12:18:10.610Z,0.25
2022-12-04T12:21:15.325Z,0.26
2022-12-04T12:24:23.312Z,0.27
2022-12-04T12:27:01.294Z,0.27
2022-12-04T12:29:50.953Z,0.29
2022-12-04T12:32:20.557Z,0.30
2022-12-04T12:34:47.626Z,0.29
2022-12-04T12:37:23.624Z,0.32
2022-12-04T12:39:54.169Z,0.33
2022-12-04T12:42:26.713Z,0.32
2022-12-04T12:45:02.284Z,0.37
2022-12-04T12:47:36.404Z,0.37
2022-12-04T12:50:15.527Z,0.39
2022-12-04T12:52:53.718Z,0.40
2022-12-04T12:55:24.507Z,0.42
2022-12-04T12:58:29.161Z,0.41
2022-12-04T13:01:29.193Z,0.44
2022-12-04T13:04:09.541Z,0.45
2022-12-04T13:06:45.616Z,0.45
2022-12-04T13:09:26.993Z,0.45
2022-12-04T13:11:59.602Z,0.47
2022-12-04T13:14:27.037Z,0.47
2022-12-04T13:17:18.558Z,0.48
2022-12-04T13:19:51.825Z,0.48
2022-12-04T13:22:51.821Z,0.48
2022-12-04T13:25:28.644Z,0.48
2022-12-04T13:28:18.294Z,0.48
2022-12-04T13:31:24.871Z,0.47
2022-12-04T13:34:09.439Z,0.47
2022-12-04T13:37:01.503Z,0.46
2022-12-04T13:40:04.411Z,0.46
2022-12-04T13:42:31.950Z,0.48
2022-12-04T13:45:02.995Z,0.49
2022-12-04T13:47:34.308Z,0.48
2022-12-04T13:50:09.829Z,0.48
2022-12-04T13:52:41.981Z,0.49
2022-12-04T13:55:27.002Z,0.48
2022-12-04T13:58:24.313Z,0.49
2022-12-04T14:01:03.955Z,0.49
2022-12-04T14:03:34.294Z,0.47
2022-12-04T14:06:06.687Z,0.47
2022-12-04T14:08:39.425Z,0.48
2022-12-04T14:11:13.402Z,0.46
2022-12-04T14:13:49.498Z,0.45
2022-12-04T14:16:26.858Z,0.45
2022-12-04T14:18:59.535Z,0.45
2022-12-04T14:21:37.703Z,0.45
2022-12-04T14:24:38.718Z,0.43
2022-12-04T14:27:53.568Z,0.43
2022-12-04T14:30:34.923Z,0.44
2022-12-04T14:33:19.267Z,0.45
2022-12-04T14:35:50.116Z,0.44
2022-12-04T14:38:22.219Z,0.45
2022-12-04T14:40:51.784Z,0.43
2022-12-04T14:43:21.589Z,0.42
2022-12-04T14:45:58.717Z,0.43
2022-12-04T14:49:03.913Z,0.43
2022-12-04T14:51:35.599Z,0.44
2022-12-04T14:54:26.720Z,0.44
2022-12-04T14:57:12.135Z,0.43
2022-12-04T14:59:51.061Z,0.44
2022-12-04T15:02:21.051Z,0.43
2022-12-04T15:04:50.352Z,0.42
2022-12-04T15:07:31.703Z,0.42
2022-12-04T15:10:19.334Z,0.43
2022-12-04T15:12:54.057Z,0.44
2022-12-04T15:15:26.366Z,0.43
2022-12-04T15:17:57.134Z,0.42
2022-12-04T15:20:23.963Z,0.43
2022-12-04T15:22:50.549Z,0.43
2022-12-04T15:25:20.996Z,0.45
2022-12-04T15:27:50.061Z,0.44
2022-12-04T15:30:19.615Z,0.45
2022-12-04T15:32:48.062Z,0.45
2022-12-04T15:35:31.761Z,0.45
2022-12-04T15:37:58.626Z,0.47
2022-12-04T15:40:27.506Z,0.46
2022-12-04T15:42:55.162Z,0.48
2022-12-04T15:45:24.565Z,0.48
2022-12-04T15:47:53.640Z,0.50
2022-12-04T15:50:19.942Z,0.51
2022-12-04T15:52:55.626Z,0.51
2022-12-04T15:55:24.381Z,0.53
2022-12-04T15:57:54.969Z,0.58
2022-12-04T16:00:21.301Z,0.60
2022-12-04T16:02:48.546Z,0.62
2022-12-04T16:05:20.986Z,0.64
2022-12-04T16:08:26.207Z,0.65
2022-12-04T16:11:02.924Z,0.65
2022-12-04T16:13:39.808Z,0.65
2022-12-04T16:16:10.487Z,0.70
2022-12-04T16:18:38.570Z,0.72
2022-12-04T16:21:05.398Z,0.72
2022-12-04T16:23:32.607Z,0.75
2022-12-04T16:25:58.953Z,0.77
2022-12-04T16:28:25.359Z,0.81
2022-12-04T16:30:52.786Z,0.84
2022-12-04T16:33:19.460Z,0.84
2022-12-04T16:35:45.826Z,0.82
2022-12-04T16:38:15.633Z,0.85
2022-12-04T16:40:43.876Z,0.82
2022-12-04T16:43:15.239Z,0.84
2022-12-04T16:45:48.122Z,0.86
2022-12-04T16:48:15.346Z,0.88
2022-12-04T16:50:41.940Z,0.90
2022-12-04T16:53:14.870Z,0.93
2022-12-04T16:55:41.365Z,0.95
2022-12-04T16:58:08.191Z,0.97
2022-12-04T17:00:36.409Z,1.00
2022-12-04T17:03:04.226Z,1.00
2022-12-04T17:05:33.345Z,1.02
2022-12-04T17:08:00.548Z,1.03
2022-12-04T17:10:27.189Z,1.03
2022-12-04T17:12:54.855Z,1.03
2022-12-04T17:15:21.734Z,1.02
2022-12-04T17:17:48.546Z,1.05
2022-12-04T17:20:17.315Z,1.07
2022-12-04T17:22:43.834Z,1.08
2022-12-04T17:25:10.750Z,1.08
2022-12-04T17:27:37.317Z,1.12
2022-12-04T17:30:05.217Z,1.16
2022-12-04T17:32:32.863Z,1.17
2022-12-04T17:34:59.729Z,1.18
2022-12-04T17:37:26.151Z,1.18
2022-12-04T17:39:52.688Z,1.18
2022-12-04T17:42:19.825Z,1.21
2022-12-04T17:44:46.437Z,1.23
2022-12-04T17:47:12.906Z,1.25
2022-12-04T17:49:39.326Z,1.25
2022-12-04T17:52:06.032Z,1.25
2022-12-04T17:54:32.438Z,1.28
2022-12-04T17:56:58.831Z,1.29
2022-12-04T17:59:25.212Z,1.30
2022-12-04T18:01:51.918Z,1.32
2022-12-04T18:04:19.075Z,1.33
2022-12-04T18:06:46.234Z,1.33
2022-12-04T18:09:17.623Z,1.35
2022-12-04T18:11:47.202Z,1.34
2022-12-04T18:14:19.248Z,1.33
2022-12-04T18:16:51.928Z,1.36
2022-12-04T18:19:27.093Z,1.34
2022-12-04T18:21:54.896Z,1.33
2022-12-04T18:24:22.794Z,1.31
2022-12-04T18:26:50.965Z,1.33
2022-12-04T18:29:20.602Z,1.31
2022-12-04T18:31:47.256Z,1.30
2022-12-04T18:34:14.450Z,1.30
2022-12-04T18:36:41.306Z,1.28
2022-12-04T18:39:11.855Z,1.27
2022-12-04T18:41:38.226Z,1.28
2022-12-04T18:44:04.799Z,1.25
2022-12-04T18:46:32.845Z,1.24
2022-12-04T18:49:00.146Z,1.23
2022-12-04T18:51:39.493Z,1.23
2022-12-04T18:54:18.971Z,1.21
2022-12-04T18:56:45.907Z,1.19
2022-12-04T18:59:21.628Z,1.19
2022-12-04T19:01:50.257Z,1.17
2022-12-04T19:04:18.351Z,1.17
2022-12-04T19:06:47.233Z,1.16
2022-12-04T19:09:17.001Z,1.16
2022-12-04T19:11:44.579Z,1.16
2022-12-04T19:14:20.993Z,1.14
2022-12-04T19:16:50.151Z,1.15
2022-12-04T19:19:16.977Z,1.14
2022-12-04T19:21:44.391Z,1.15
2022-12-04T19:24:11.164Z,1.16
2022-12-04T19:26:38.305Z,1.15
2022-12-04T19:29:05.907Z,1.15
2022-12-04T19:31:34.624Z,1.16
2022-12-04T19:34:01.595Z,1.17
2022-12-04T19:36:30.285Z,1.17
2022-12-04T19:38:57.579Z,1.18
2022-12-04T19:41:26.100Z,1.19
2022-12-04T19:43:56.142Z,1.19
2022-12-04T19:46:26.100Z,1.20
2022-12-04T19:48:58.466Z,1.21
2022-12-04T19:51:25.431Z,1.22
2022-12-04T19:53:53.244Z,1.23
2022-12-04T19:56:24.482Z,1.23
2022-12-04T19:58:53.049Z,1.24
2022-12-04T20:01:23.940Z,1.25
2022-12-04T20:03:50.805Z,1.27
2022-12-04T20:06:19.449Z,1.28
2022-12-04T20:08:46.875Z,1.30
2022-12-04T20:11:18.508Z,1.31
2022-12-04T20:13:47.241Z,1.31
2022-12-04T20:16:17.069Z,1.34
2022-12-04T20:18:44.245Z,1.35
2022-12-04T20:21:11.914Z,1.38
2022-12-04T20:23:42.916Z,1.38
2022-12-04T20:26:12.299Z,1.41
2022-12-04T20:28:39.271Z,1.41
2022-12-04T20:31:14.454Z,1.42
2022-12-04T20:33:41.858Z,1.43
2022-12-04T20:36:09.714Z,1.43
2022-12-04T20:38:36.574Z,1.44
2022-12-04T20:41:09.037Z,1.46
2022-12-04T20:43:36.284Z,1.47
2022-12-04T20:46:13.697Z,1.48
2022-12-04T20:48:40.114Z,1.48
2022-12-04T20:51:06.648Z,1.49
2022-12-04T20:53:34.988Z,1.51
2022-12-04T20:56:01.328Z,1.52
2022-12-04T20:58:27.706Z,1.54
2022-12-04T21:00:54.152Z,1.54
2022-12-04T21:03:20.573Z,1.55
2022-12-04T21:05:50.019Z,1.56
2022-12-04T21:08:36.343Z,1.56
2022-12-04T21:11:02.995Z,1.57
2022-12-04T21:13:47.754Z,1.59
2022-12-04T21:16:14.214Z,1.61
2022-12-04T21:18:40.594Z,1.62
2022-12-04T21:21:06.950Z,1.65
2022-12-04T21:23:33.488Z,1.66
2022-12-04T21:25:59.870Z,1.67
2022-12-04T21:28:26.269Z,1.69
2022-12-04T21:30:52.644Z,1.71
2022-12-04T21:33:19.039Z,1.72
2022-12-04T21:35:45.378Z,1.71
2022-12-04T21:38:11.933Z,1.74
2022-12-04T21:40:42.347Z,1.74
2022-12-04T21:43:09.127Z,1.75
2022-12-04T21:45:35.483Z,1.75
2022-12-04T21:48:01.836Z,1.77
2022-12-04T21:50:28.183Z,1.77
2022-12-04T21:52:54.626Z,1.77
2022-12-04T21:55:20.991Z,1.80
2022-12-04T21:57:47.355Z,1.79
2022-12-04T22:00:14.322Z,1.80
2022-12-04T22:02:40.729Z,1.81
2022-12-04T22:05:07.494Z,1.82
2022-12-04T22:07:33.969Z,1.83
2022-12-04T22:10:04.140Z,1.85
2022-12-04T22:12:49.024Z,1.86
2022-12-04T22:15:16.356Z,1.86
2022-12-04T22:17:42.739Z,1.88
2022-12-04T22:20:09.481Z,1.89
2022-12-04T22:22:35.845Z,1.91
2022-12-04T22:25:02.231Z,1.92
2022-12-04T22:27:28.590Z,1.92
2022-12-04T22:29:55.018Z,1.94
2022-12-04T22:32:21.391Z,1.95
2022-12-04T22:34:49.139Z,1.97
2022-12-04T22:37:15.875Z,1.96
2022-12-04T22:39:42.245Z,1.99
2022-12-04T22:42:08.606Z,2.02
2022-12-04T22:44:34.984Z,2.03
2022-12-04T22:47:01.390Z,2.04
2022-12-04T22:49:27.824Z,2.02
2022-12-04T22:51:54.181Z,2.04
2022-12-04T22:54:20.603Z,2.07
2022-12-04T22:56:46.978Z,2.09
2022-12-04T22:59:13.356Z,2.11
2022-12-04T23:01:39.747Z,2.11
2022-12-04T23:04:06.268Z,2.14
2022-12-04T23:06:33.980Z,2.16
2022-12-04T23:09:08.852Z,2.17
2022-12-04T23:11:36.304Z,2.18
2022-12-04T23:14:05.762Z,2.21
2022-12-04T23:16:36.120Z,2.21
2022-12-04T23:19:03.164Z,2.23
2022-12-04T23:21:29.571Z,2.23
2022-12-04T23:23:56.850Z,2.26
2022-12-04T23:26:26.723Z,2.27
2022-12-04T23:28:53.306Z,2.28
2022-12-04T23:31:19.963Z,2.30
2022-12-04T23:33:46.535Z,2.30
2022-12-04T23:36:13.960Z,2.30
2022-12-04T23:38:41.995Z,2.33
2022-12-04T23:41:15.709Z,2.35
2022-12-04T23:43:43.192Z,2.38
2022-12-04T23:46:11.746Z,2.38
2022-12-04T23:48:40.115Z,2.40
2022-12-04T23:51:07.572Z,2.42
2022-12-04T23:53:34.247Z,2.44
2022-12-04T23:56:06.784Z,2.44
2022-12-04T23:58:34.805Z,2.46
